WetterOnline ( https://www.wetteronline.de )

Wetter aktuell Prenzlau

Aktuelles Wetter: Grünow (57m)

6-stündlich | Neueste Meldungen
Ortszeit Temperatur Wetter
Di, 29.11. 1:00 2.2° C bedeckt
Mo, 28.11. 19:00 2.3° C bedeckt
Mo, 28.11. 13:00 4.6° C bedeckt
Mo, 28.11. 7:00 2.6° C wolkig
Mo, 28.11. 1:00 4.2° C bedeckt
So, 27.11. 19:00 4.7° C bedeckt
So, 27.11. 13:00 7.6° C wolkig
So, 27.11. 7:00 6.2° C bedeckt
Ortszeit Temperatur Wetter
Di, 29.11. 6:00 2.0° C bedeckt
Di, 29.11. 5:50 2.0° C Dunst
Di, 29.11. 5:40 2.0° C bedeckt
Di, 29.11. 5:30 2.1° C bedeckt
Di, 29.11. 5:20 2.1° C bedeckt
Di, 29.11. 5:10 2.1° C bedeckt
Di, 29.11. 5:00 2.1° C bedeckt
Di, 29.11. 4:30 2.2° C bewölkt
Di, 29.11. 4:00 2.2° C bedeckt
Di, 29.11. 3:30 2.2° C bedeckt
Di, 29.11. 3:00 2.1° C bedeckt
Ortszeit Relative Feuchte Sichtweite
Di, 29.11. 1:00 91% 9 km
Mo, 28.11. 19:00 89% 8 km
Mo, 28.11. 13:00 81% 16 km
Mo, 28.11. 7:00 95% 8 km
Mo, 28.11. 1:00 97% 4.9 km
So, 27.11. 19:00 97% 7 km
So, 27.11. 13:00 88% 15 km
So, 27.11. 7:00 99% 4.7 km
Ortszeit Relative Feuchte Sichtweite
Di, 29.11. 6:00 93% 7 km
Di, 29.11. 5:50 93% -
Di, 29.11. 5:40 92% -
Di, 29.11. 5:30 92% 8 km
Di, 29.11. 5:20 92% -
Di, 29.11. 5:10 92% -
Di, 29.11. 5:00 92% 8 km
Di, 29.11. 4:30 92% 8 km
Di, 29.11. 4:00 92% 8 km
Di, 29.11. 3:30 92% 8 km
Di, 29.11. 3:00 92% 9 km
Ortszeit Niederschlagsmenge Niederschlagsart
Di, 29.11. 1:00 0.0 l/m2 in 6 Std. -
Mo, 28.11. 19:00 0.0 l/m2 in 12 Std. -
Mo, 28.11. 13:00 0.0 l/m2 in 6 Std. -
Mo, 28.11. 7:00 0.0 l/m2 in 12 Std. -
Mo, 28.11. 1:00 0.0 l/m2 in 6 Std. -
So, 27.11. 19:00 0.0 l/m2 in 12 Std. -
So, 27.11. 13:00 0.0 l/m2 in 6 Std. -
So, 27.11. 7:00 0.9 l/m2 in 12 Std. -
Ortszeit Niederschlagsmenge Niederschlagsart
Di, 29.11. 6:00 0.0 l/m2 in 1 Std. -
Di, 29.11. 5:50 keine Meldung -
Di, 29.11. 5:40 keine Meldung -
Di, 29.11. 5:30 0.0 l/m2 in 1 Std. -
Di, 29.11. 5:20 keine Meldung -
Di, 29.11. 5:10 keine Meldung -
Di, 29.11. 5:00 0.0 l/m2 in 1 Std. -
Di, 29.11. 4:30 0.0 l/m2 in 1 Std. -
Di, 29.11. 4:00 0.0 l/m2 in 1 Std. -
Di, 29.11. 3:30 0.0 l/m2 in 1 Std. -
Di, 29.11. 3:00 0.0 l/m2 in 1 Std. -
Ortszeit Stärke Spitze Richtung
km/h Bft. km/h Grad Sektor
Di, 29.11. 1:00 14 3 25 100° O
Mo, 28.11. 19:00 14 3 32 120° SO
Mo, 28.11. 13:00 17 3 33 130° SO
Mo, 28.11. 7:00 13 3 31 130° SO
Mo, 28.11. 1:00 17 3 31 140° SO
So, 27.11. 19:00 18 3 25 150° SO
So, 27.11. 13:00 14 3 22 150° SO
So, 27.11. 7:00 7 2 14 180° S
Ortszeit Stärke Spitze Richtung
km/h Bft. km/h Grad Sektor
Di, 29.11. 6:00 14 3 25 100° O
Di, 29.11. 5:50 14 3 - 100° O
Di, 29.11. 5:40 14 3 - 100° O
Di, 29.11. 5:30 14 3 25 100° O
Di, 29.11. 5:20 14 3 - 100° O
Di, 29.11. 5:10 14 3 - 100° O
Di, 29.11. 5:00 17 3 24 100° O
Di, 29.11. 4:30 13 3 19 100° O
Di, 29.11. 4:00 11 2 20 100° O
Di, 29.11. 3:30 13 3 19 110° O
Di, 29.11. 3:00 14 3 22 100° O
Ortszeit Untergrenze Bedeckung Gattung
total tief tief mittel hoch
Di, 29.11. 1:00 300 m 8/8 8/8 - - -
Mo, 28.11. 19:00 3600 m 8/8 8/8 - - -
Mo, 28.11. 13:00 3300 m 8/8 8/8 - - -
Mo, 28.11. 7:00 270 m 8/8 3/8 - - -
Mo, 28.11. 1:00 150 m 8/8 8/8 - - -
So, 27.11. 19:00 5100 m 8/8 8/8 - - -
So, 27.11. 13:00 1800 m 6/8 6/8 - - -
So, 27.11. 7:00 150 m 8/8 8/8 - - -
Ortszeit Bedeckungsgrad in Achtel und Wolkenuntergrenze
Di, 29.11. 6:00 8(270m) 8(3300m)
Di, 29.11. 5:50 8(270m) 8(3300m)
Di, 29.11. 5:40 8
Di, 29.11. 5:30 8(270m) 8(3300m)
Di, 29.11. 5:20 8(270m) 8(3300m)
Di, 29.11. 5:10 8
Di, 29.11. 5:00 8(300m) 8(1050m) 8(3300m)
Di, 29.11. 4:30 5(300m) 7(990m) 8(3300m)
Di, 29.11. 4:00 6(270m) 8(960m)
Di, 29.11. 3:30 7(300m) 8(930m)
Di, 29.11. 3:00 5(300m) 8(960m) 8(3300m)
Ortszeit Luftdruck NN (hPa) Tendenz (hPa in 3 Std.)
Di, 29.11. 1:00 1018 + 0,2
Mo, 28.11. 19:00 1018 - 0,1
Mo, 28.11. 13:00 1018 - 0,9
Mo, 28.11. 7:00 1020 - 1,0
Mo, 28.11. 1:00 1022 - 0,9
So, 27.11. 19:00 1024 - 1,1
So, 27.11. 13:00 1027 - 0,9
So, 27.11. 7:00 1028 0,0
Ortszeit Luftdruck NN (hPa) Tendenz (hPa in 3 Std.)
Di, 29.11. 6:00 1019 + 0,6
Di, 29.11. 5:50 1019 keine Meldung
Di, 29.11. 5:40 1019 keine Meldung
Di, 29.11. 5:30 1019 + 0,6
Di, 29.11. 5:20 1019 keine Meldung
Di, 29.11. 5:10 1019 keine Meldung
Di, 29.11. 5:00 1019 + 0,4
Di, 29.11. 4:30 1018 + 0,1
Di, 29.11. 4:00 1018 0,0
Di, 29.11. 3:30 1018 - 0,1
Di, 29.11. 3:00 1018 + 0,1
Ortszeit Schneehöhe (cm)
Di, 29.11. 1:00 0
Mo, 28.11. 19:00 0
Mo, 28.11. 13:00 0
Mo, 28.11. 7:00 0
Mo, 28.11. 1:00 0
So, 27.11. 19:00 0
So, 27.11. 13:00 0
So, 27.11. 7:00 0
Ortszeit Schneehöhe (cm)
Di, 29.11. 6:00 0
Di, 29.11. 5:50 0
Di, 29.11. 5:40 0
Di, 29.11. 5:30 0
Di, 29.11. 5:20 0
Di, 29.11. 5:10 0
Di, 29.11. 5:00 0
Di, 29.11. 4:30 0
Di, 29.11. 4:00 0
Di, 29.11. 3:30 0
Di, 29.11. 3:00 0
Link zu dieser Seite / Seite empfehlen

Das Wetter in ...